Time;durP1;ratioP1;P1;durP2;ratioP2;P2;SDS_P1;SDS_P2;PMS_P1;PMS_P2;Temp;Humidity;BMP_temperature;BMP_pressure;BME280_temperature;BME280_humidity;BME280_pressure;Samples;Min_cycle;Max_cycle;Signal;HPM_P1;HPM_P2
2023/01/26 00:00:46;;;;;;;32.92;11.50;;;;;;;-2.39;59.08;102388.00;4986897;28;20042;-77
2023/01/26 00:03:12;;;;;;;29.48;10.52;;;;;;;-2.57;59.44;102383.91;4984291;28;20034;-75
2023/01/26 00:05:38;;;;;;;31.42;10.35;;;;;;;-2.46;58.92;102374.97;4981945;28;20036;-74
2023/01/26 00:08:04;;;;;;;30.20;10.50;;;;;;;-2.14;57.99;102374.41;4959619;28;20152;-74
2023/01/26 00:10:29;;;;;;;20.23;8.73;;;;;;;-2.56;59.26;102377.97;4967715;28;20623;-77
2023/01/26 00:12:55;;;;;;;29.38;10.63;;;;;;;-2.66;59.13;102369.06;4984888;28;20189;-76
2023/01/26 00:15:21;;;;;;;24.17;10.32;;;;;;;-2.88;60.18;102379.28;4983645;28;20034;-76
2023/01/26 00:17:46;;;;;;;28.13;9.50;;;;;;;-2.55;58.79;102368.63;4984390;28;20133;-74
2023/01/26 00:20:12;;;;;;;35.53;9.95;;;;;;;-2.12;58.30;102367.66;4984494;28;20835;-77
2023/01/26 00:22:37;;;;;;;26.48;10.13;;;;;;;-2.06;57.66;102365.31;4981423;28;20031;-77
2023/01/26 00:25:03;;;;;;;29.02;10.88;;;;;;;-2.28;58.38;102361.97;4984506;28;20037;-78
2023/01/26 00:27:31;;;;;;;25.25;8.63;;;;;;;-2.35;58.66;102366.81;4981829;28;20676;-76
2023/01/26 00:29:59;;;;;;;29.10;9.32;;;;;;;-1.99;57.66;102364.72;4967327;28;20480;-76
2023/01/26 00:32:24;;;;;;;24.15;9.18;;;;;;;-2.68;59.54;102363.00;4981294;28;20037;-77
2023/01/26 00:34:50;;;;;;;21.17;8.63;;;;;;;-2.92;60.32;102349.25;4982839;28;20049;-77
2023/01/26 00:37:15;;;;;;;24.77;8.75;;;;;;;-3.03;60.64;102350.53;4984702;28;20030;-74
2023/01/26 00:39:42;;;;;;;23.17;7.85;;;;;;;-2.28;59.05;102348.28;4982948;28;20030;-76
2023/01/26 00:42:12;;;;;;;28.98;8.30;;;;;;;-2.09;58.33;102352.38;4983007;28;20022;-78
2023/01/26 00:44:39;;;;;;;26.05;9.57;;;;;;;-1.90;58.19;102339.41;4977713;28;20035;-76
2023/01/26 00:47:07;;;;;;;22.67;8.07;;;;;;;-2.05;58.06;102344.88;4984647;28;20308;-76
2023/01/26 00:49:33;;;;;;;22.15;8.25;;;;;;;-2.46;58.78;102340.81;4980269;28;20541;-76
2023/01/26 00:51:59;;;;;;;22.13;7.38;;;;;;;-2.31;59.40;102341.38;4981496;28;20053;-76
2023/01/26 00:54:24;;;;;;;23.70;7.60;;;;;;;-2.77;60.44;102341.31;4978593;28;20038;-75
2023/01/26 00:56:50;;;;;;;24.38;6.93;;;;;;;-2.33;59.32;102332.75;4983056;28;20101;-76
2023/01/26 00:59:15;;;;;;;21.70;8.75;;;;;;;-2.57;60.27;102342.97;4981375;28;20112;-75
2023/01/26 01:01:44;;;;;;;23.50;7.43;;;;;;;-2.91;60.77;102335.69;4982544;28;20034;-76
2023/01/26 01:04:12;;;;;;;21.88;6.55;;;;;;;-2.33;59.62;102350.69;4981983;28;20136;-76
2023/01/26 01:06:38;;;;;;;20.75;7.50;;;;;;;-2.21;58.86;102358.81;4979878;28;20034;-75
2023/01/26 01:09:04;;;;;;;20.27;8.18;;;;;;;-2.05;58.55;102341.44;4984112;28;20044;-77
2023/01/26 01:11:29;;;;;;;18.05;5.72;;;;;;;-1.90;58.01;102342.00;4979970;28;20084;-77
2023/01/26 01:13:56;;;;;;;21.83;7.40;;;;;;;-1.99;58.74;102349.34;4982516;28;20117;-75
2023/01/26 01:16:21;;;;;;;17.70;5.22;;;;;;;-1.77;58.00;102345.00;4965257;28;20134;-76
2023/01/26 01:18:47;;;;;;;18.05;6.25;;;;;;;-2.33;59.09;102343.00;4983390;28;20046;-74
2023/01/26 01:21:15;;;;;;;18.65;6.85;;;;;;;-2.18;59.07;102349.50;4978220;28;20030;-76
2023/01/26 01:23:41;;;;;;;22.90;7.00;;;;;;;-1.64;57.52;102349.72;4980706;28;20116;-75
2023/01/26 01:26:07;;;;;;;14.82;5.65;;;;;;;-1.69;57.84;102346.97;4979158;28;20474;-76
2023/01/26 01:28:34;;;;;;;19.17;7.05;;;;;;;-2.25;59.04;102350.97;4977748;28;20042;-74
2023/01/26 01:31:04;;;;;;;17.70;8.00;;;;;;;-2.12;59.00;102353.16;4982560;28;20408;-75
2023/01/26 01:33:29;;;;;;;17.80;5.68;;;;;;;-1.88;58.45;102350.59;4979243;28;20133;-76
2023/01/26 01:36:00;;;;;;;16.17;5.47;;;;;;;-1.84;58.07;102347.34;4984118;28;20034;-77
2023/01/26 01:38:26;;;;;;;18.60;6.60;;;;;;;-1.80;57.69;102351.75;4979650;28;20038;-74
2023/01/26 01:40:52;;;;;;;17.77;6.35;;;;;;;-1.53;57.32;102353.53;4982240;28;20427;-77
2023/01/26 01:43:18;;;;;;;19.75;6.65;;;;;;;-1.32;56.71;102367.88;4980181;28;20038;-77
2023/01/26 01:45:48;;;;;;;13.98;6.25;;;;;;;-1.29;56.63;102363.72;4979975;28;20125;-77
2023/01/26 01:48:35;;;;;;;15.75;5.72;;;;;;;-1.98;58.90;102363.91;4983153;28;20732;-76
2023/01/26 01:51:13;;;;;;;8.70;4.20;;;;;;;-1.76;57.70;102356.97;4983331;28;20483;-77
2023/01/26 01:53:44;;;;;;;17.83;5.55;;;;;;;-2.02;58.76;102357.81;4979400;28;20123;-76
2023/01/26 01:56:17;;;;;;;18.85;5.95;;;;;;;-1.54;57.53;102359.47;4982496;28;20299;-76
2023/01/26 01:58:44;;;;;;;12.93;4.72;;;;;;;-1.68;57.78;102353.00;4980027;28;20807;-78
2023/01/26 02:01:10;;;;;;;22.13;6.63;;;;;;;-2.23;58.65;102355.31;4983165;28;20038;-76
2023/01/26 02:03:37;;;;;;;18.55;6.13;;;;;;;-1.53;57.49;102353.53;4978037;28;20058;-77
2023/01/26 02:06:02;;;;;;;15.65;5.80;;;;;;;-1.98;58.62;102348.53;4983279;28;20022;-77
2023/01/26 02:08:38;;;;;;;13.88;5.88;;;;;;;-2.33;59.76;102340.44;4981989;28;20108;-76
2023/01/26 02:11:08;;;;;;;16.13;6.45;;;;;;;-2.05;59.57;102341.44;4984065;28;20084;-75
2023/01/26 02:13:35;;;;;;;17.33;5.70;;;;;;;-2.11;59.01;102334.41;4960847;28;20563;-76
2023/01/26 02:16:02;;;;;;;17.73;5.07;;;;;;;-1.64;58.28;102329.22;4981710;28;20570;-75
2023/01/26 02:18:28;;;;;;;13.82;5.57;;;;;;;-1.92;58.76;102330.81;4980681;28;20042;-77
2023/01/26 02:21:01;;;;;;;13.25;5.82;;;;;;;-1.56;57.69;102332.03;4981902;28;20038;-76
2023/01/26 02:23:51;;;;;;;15.00;5.78;;;;;;;-1.63;57.62;102334.38;4978840;28;20057;-75
2023/01/26 02:26:19;;;;;;;15.50;5.20;;;;;;;-1.84;58.51;102321.72;4980075;28;20030;-75
2023/01/26 02:28:46;;;;;;;17.02;7.10;;;;;;;-2.07;59.16;102327.69;4979713;28;20038;-76
2023/01/26 02:31:12;;;;;;;16.80;5.47;;;;;;;-1.74;58.21;102328.00;4981009;28;20034;-76
2023/01/26 02:33:39;;;;;;;22.65;6.75;;;;;;;-1.94;58.84;102319.63;4977316;28;20497;-75
2023/01/26 02:36:06;;;;;;;16.60;5.18;;;;;;;-1.72;58.44;102325.50;4982441;28;20117;-76
2023/01/26 02:38:39;;;;;;;20.38;5.88;;;;;;;-1.98;59.43;102320.34;4979807;28;20129;-75
2023/01/26 02:41:11;;;;;;;12.43;4.25;;;;;;;-1.74;58.15;102328.00;4982666;28;20034;-76
2023/01/26 02:43:37;;;;;;;12.82;4.55;;;;;;;-1.68;58.59;102312.84;4979519;28;20979;-77
2023/01/26 02:46:03;;;;;;;13.02;5.70;;;;;;;-1.78;58.40;102315.91;4980802;28;20036;-75
2023/01/26 02:51:13;;;;;;;11.35;5.22;;;;;;;-1.84;58.61;102315.72;4981974;28;20166;-75
2023/01/26 02:53:39;;;;;;;15.43;4.53;;;;;;;-1.59;57.83;102317.41;4978101;28;20559;-77
2023/01/26 02:56:05;;;;;;;13.57;5.45;;;;;;;-1.51;57.80;102313.44;4982614;28;20061;-76
2023/01/26 02:58:32;;;;;;;14.10;4.43;;;;;;;-1.79;58.07;102316.72;4978702;28;20038;-76
2023/01/26 03:00:57;;;;;;;12.88;5.50;;;;;;;-1.59;58.00;102312.28;4979524;28;20041;-78
2023/01/26 03:03:40;;;;;;;16.67;5.28;;;;;;;-1.83;58.88;102318.31;4964790;28;20193;-77
2023/01/26 03:06:15;;;;;;;16.35;6.38;;;;;;;-1.64;58.28;102311.28;4980772;28;20031;-77
2023/01/26 03:08:41;;;;;;;14.95;6.47;;;;;;;-1.65;58.23;102317.19;4977808;28;20066;-75
2023/01/26 03:11:07;;;;;;;11.65;5.53;;;;;;;-1.78;58.91;102317.59;4982080;28;20054;-77
2023/01/26 03:13:33;;;;;;;20.52;6.65;;;;;;;-1.91;58.40;102311.16;4978963;28;20057;-75
2023/01/26 03:16:05;;;;;;;14.55;5.93;;;;;;;-1.78;59.03;102310.78;4978679;28;20458;-77
2023/01/26 03:29:37;;;;;;;13.00;5.13;;;;;;;-0.97;56.65;102316.03;4977426;28;20042;-76
2023/01/26 03:32:04;;;;;;;11.88;4.15;;;;;;;-0.97;56.49;102313.47;4981269;28;20037;-77
2023/01/26 03:34:30;;;;;;;15.23;4.93;;;;;;;-1.68;58.33;102312.84;4977680;28;21050;-76
2023/01/26 03:36:56;;;;;;;11.80;4.85;;;;;;;-1.51;58.07;102316.00;4980871;28;20121;-78
2023/01/26 03:58:57;;;;;;;14.02;5.00;;;;;;;-1.10;57.32;102298.47;4979343;28;20042;-77
2023/01/26 04:01:31;;;;;;;12.00;5.13;;;;;;;-1.03;57.01;102300.44;4979537;28;20420;-77
2023/01/26 04:09:31;;;;;;;13.43;5.28;;;;;;;-0.81;56.27;102288.28;4978395;28;20169;-78
2023/01/26 04:11:57;;;;;;;12.88;4.25;;;;;;;-1.58;58.30;102301.19;4980278;28;20044;-76
2023/01/26 04:22:44;;;;;;;12.07;4.85;;;;;;;-0.96;56.92;102288.66;4959101;28;20068;-76
2023/01/26 04:25:17;;;;;;;18.08;5.80;;;;;;;-0.86;56.73;102292.38;4966667;28;20033;-77
2023/01/26 04:27:44;;;;;;;16.67;5.45;;;;;;;-0.81;56.70;102283.13;4982095;28;20109;-76
2023/01/26 04:30:12;;;;;;;13.57;5.03;;;;;;;-0.87;56.65;102281.25;4983490;28;20038;-77
2023/01/26 04:32:39;;;;;;;12.38;5.35;;;;;;;-1.14;57.71;102280.38;4961936;28;20061;-77
2023/01/26 04:35:07;;;;;;;13.15;4.63;;;;;;;-0.87;57.32;102288.94;4985080;28;20034;-76
2023/01/26 04:37:34;;;;;;;10.10;4.22;;;;;;;-0.69;56.96;102280.91;4981473;28;20492;-77
2023/01/26 04:40:00;;;;;;;14.70;6.10;;;;;;;-0.65;56.80;102271.63;4968012;28;20393;-77
2023/01/26 04:42:27;;;;;;;15.23;5.22;;;;;;;-0.54;56.65;102275.38;4981514;28;20030;-77
2023/01/26 04:44:55;;;;;;;11.30;4.55;;;;;;;-0.48;56.37;102269.50;4983571;28;20897;-76
2023/01/26 04:47:21;;;;;;;12.65;5.05;;;;;;;-0.45;56.38;102275.63;4982797;28;20602;-77
2023/01/26 04:49:47;;;;;;;14.15;5.45;;;;;;;-0.56;56.87;102277.88;4982576;28;20046;-75
2023/01/26 04:52:17;;;;;;;16.60;5.45;;;;;;;-0.64;57.13;102263.97;4982477;28;20061;-75
2023/01/26 04:54:43;;;;;;;16.45;6.47;;;;;;;-0.45;56.49;102269.63;4983114;28;20035;-76
2023/01/26 04:57:09;;;;;;;19.92;6.57;;;;;;;-0.44;56.83;102267.06;4984640;28;20040;-75
2023/01/26 04:59:36;;;;;;;14.00;5.78;;;;;;;-0.25;56.27;102265.91;4978400;28;20941;-74
2023/01/26 05:02:01;;;;;;;12.50;5.47;;;;;;;-0.30;56.60;102272.63;4983864;28;20057;-76
2023/01/26 05:04:27;;;;;;;16.23;4.82;;;;;;;-0.30;56.43;102258.88;4980169;28;20058;-74
2023/01/26 05:06:52;;;;;;;13.18;5.65;;;;;;;-0.21;56.24;102265.16;4984726;28;20693;-77
2023/01/26 05:09:19;;;;;;;14.25;6.07;;;;;;;-0.33;56.81;102264.81;4980091;28;20061;-76
2023/01/26 05:11:49;;;;;;;18.38;7.10;;;;;;;-0.18;56.77;102266.94;4982571;28;20034;-75
2023/01/26 05:14:44;;;;;;;15.43;5.70;;;;;;;-0.11;56.76;102255.13;4964467;28;20047;-76
2023/01/26 05:17:40;;;;;;;17.63;6.32;;;;;;;-0.13;56.98;102261.06;4981357;28;20034;-77
2023/01/26 05:20:29;;;;;;;11.27;4.50;;;;;;;0.02;56.40;102252.03;4982095;28;20813;-76
2023/01/26 05:23:07;;;;;;;17.13;6.35;;;;;;;0.04;56.33;102248.69;4984859;28;20066;-77
2023/01/26 05:25:56;;;;;;;16.30;6.03;;;;;;;-0.06;56.83;102258.69;4971020;28;20042;-75
2023/01/26 05:28:22;;;;;;;16.25;6.10;;;;;;;0.08;56.65;102262.50;4981094;28;20081;-76
2023/01/26 05:30:47;;;;;;;13.02;5.70;;;;;;;0.10;56.26;102262.50;4981189;28;20038;-77
2023/01/26 05:33:13;;;;;;;24.83;7.25;;;;;;;-0.09;57.10;102253.47;4982380;28;20046;-76
2023/01/26 05:35:39;;;;;;;17.70;5.95;;;;;;;-0.04;57.09;102263.03;4979999;28;20034;-77
2023/01/26 05:38:07;;;;;;;15.10;6.10;;;;;;;0.12;56.58;102258.28;4982919;28;20039;-77
2023/01/26 05:40:33;;;;;;;18.17;6.07;;;;;;;0.17;56.61;102265.28;4983188;28;20038;-74
2023/01/26 05:42:58;;;;;;;15.48;5.90;;;;;;;0.17;56.78;102273.00;4985205;28;20411;-74
2023/01/26 05:45:42;;;;;;;18.27;5.97;;;;;;;0.25;56.94;102279.19;4982726;28;20026;-77
2023/01/26 05:48:10;;;;;;;18.63;6.15;;;;;;;0.22;56.86;102280.84;4966206;28;20548;-77
2023/01/26 05:50:36;;;;;;;12.65;6.20;;;;;;;0.25;57.26;102270.63;4965620;28;20034;-77
2023/01/26 05:53:19;;;;;;;18.75;6.38;;;;;;;0.37;56.89;102275.22;4980951;28;20038;-74
2023/01/26 05:55:45;;;;;;;16.77;5.95;;;;;;;0.42;57.26;102273.63;4981208;28;20037;-74
2023/01/26 05:58:11;;;;;;;19.20;6.05;;;;;;;0.52;57.15;102272.13;4980838;28;20038;-75
2023/01/26 06:00:37;;;;;;;21.48;6.45;;;;;;;0.41;56.68;102274.44;4978674;28;20042;-77
2023/01/26 06:03:08;;;;;;;15.95;7.07;;;;;;;0.61;56.99;102270.69;4982807;28;20295;-77
2023/01/26 06:05:34;;;;;;;17.83;5.55;;;;;;;0.69;56.43;102283.72;4978698;28;20211;-77
2023/01/26 06:08:05;;;;;;;14.32;4.63;;;;;;;0.76;56.57;102275.28;4980118;28;20523;-76
2023/01/26 06:10:43;;;;;;;15.98;6.55;;;;;;;0.80;56.27;102278.81;4979653;28;20312;-76
2023/01/26 06:13:35;;;;;;;28.10;7.67;;;;;;;0.82;56.30;102279.72;4972188;28;21049;-76
2023/01/26 06:16:13;;;;;;;21.85;5.95;;;;;;;0.90;56.73;102288.47;4979206;28;20269;-76
2023/01/26 06:18:38;;;;;;;25.65;6.55;;;;;;;0.94;56.70;102300.59;4977217;28;20114;-77
2023/01/26 06:21:04;;;;;;;17.85;6.13;;;;;;;1.07;56.75;102300.03;4978041;28;20396;-77
2023/01/26 06:23:30;;;;;;;22.02;5.15;;;;;;;1.17;58.04;102297.66;4960537;28;20066;-75
2023/01/26 06:26:01;;;;;;;17.27;3.97;;;;;;;1.40;57.80;102300.75;4992758;28;20665;-75
2023/01/26 06:28:29;;;;;;;13.23;3.40;;;;;;;1.56;57.82;102292.53;4978718;28;20121;-72
2023/01/26 06:30:59;;;;;;;15.63;2.65;;;;;;;1.64;57.83;102290.09;4964591;28;20185;-77
2023/01/26 06:33:27;;;;;;;21.38;3.08;;;;;;;1.70;58.13;102287.63;4979974;28;20130;-77
2023/01/26 06:35:54;;;;;;;16.70;1.65;;;;;;;1.91;58.75;102300.94;4980495;28;20091;-75
2023/01/26 06:38:20;;;;;;;18.65;2.25;;;;;;;1.96;58.94;102295.00;4963465;28;20050;-76
2023/01/26 06:40:47;;;;;;;18.92;3.15;;;;;;;2.17;58.79;102302.25;4981015;28;20451;-76
2023/01/26 06:43:13;;;;;;;17.17;2.42;;;;;;;2.30;58.47;102304.22;4983264;28;20038;-75
2023/01/26 06:45:41;;;;;;;30.25;2.42;;;;;;;2.35;58.69;102312.91;4981177;28;20033;-75
2023/01/26 06:48:07;;;;;;;21.92;2.63;;;;;;;2.37;59.00;102312.94;4966256;28;20566;-76
2023/01/26 06:50:34;;;;;;;16.67;1.60;;;;;;;2.31;58.78;102312.00;4981182;28;20022;-77
2023/01/26 06:53:03;;;;;;;14.63;1.42;;;;;;;2.10;59.38;102315.03;4981688;28;20046;-77
2023/01/26 06:55:45;;;;;;;18.05;2.25;;;;;;;2.35;58.98;102318.06;4981182;28;20042;-77
2023/01/26 06:58:24;;;;;;;14.80;1.40;;;;;;;2.46;58.76;102326.00;4982300;28;20038;-77
2023/01/26 07:01:19;;;;;;;18.83;1.98;;;;;;;2.42;59.45;102330.25;4967025;28;20038;-74
2023/01/26 07:03:47;;;;;;;21.02;2.28;;;;;;;2.43;59.33;102329.41;4974220;28;20065;-76
2023/01/26 07:06:13;;;;;;;21.98;2.20;;;;;;;2.34;60.03;102322.34;4979071;28;20056;-75
2023/01/26 07:08:39;;;;;;;14.32;2.28;;;;;;;2.66;59.36;102324.59;4978462;28;20042;-77
2023/01/26 07:11:06;;;;;;;27.35;2.13;;;;;;;2.68;58.88;102327.22;4979917;28;20057;-74
2023/01/26 07:13:32;;;;;;;22.55;1.65;;;;;;;2.89;58.43;102321.50;4977855;28;20100;-74
2023/01/26 07:16:04;;;;;;;14.50;2.03;;;;;;;2.75;58.83;102322.16;4967477;28;20088;-77
2023/01/26 07:18:30;;;;;;;;;;;;;;;2.75;58.81;102324.75;4978675;28;20945;-76
2023/01/26 07:21:17;;;;;;;25.20;2.15;;;;;;;2.76;58.63;102336.84;4980018;28;19952;-74
2023/01/26 07:23:43;;;;;;;11.20;2.38;;;;;;;2.66;59.22;102340.09;4979859;28;20057;-77
2023/01/26 07:26:10;;;;;;;15.90;1.30;;;;;;;2.62;59.03;102333.13;4981378;28;20033;-77
2023/01/26 07:28:36;;;;;;;34.05;2.30;;;;;;;2.69;58.62;102345.31;4980043;28;20160;-74
2023/01/26 07:31:04;;;;;;;17.60;1.75;;;;;;;2.59;58.73;102343.44;4980086;28;20035;-76
2023/01/26 07:33:33;;;;;;;16.08;0.98;;;;;;;2.72;58.65;102355.69;4977990;28;20065;-75
2023/01/26 07:36:00;;;;;;;25.13;2.17;;;;;;;2.61;58.81;102351.22;4978354;28;20594;-77
2023/01/26 07:38:27;;;;;;;26.10;2.60;;;;;;;2.70;58.63;102353.94;4979001;28;20792;-75
2023/01/26 07:40:53;;;;;;;15.32;1.60;;;;;;;2.67;58.71;102361.66;4980004;28;20034;-77
2023/01/26 07:43:19;;;;;;;16.02;1.73;;;;;;;2.89;57.76;102358.56;4978913;28;20034;-77
2023/01/26 07:45:53;;;;;;;14.07;2.42;;;;;;;2.84;58.22;102364.47;4980488;28;20132;-76
2023/01/26 07:48:20;;;;;;;18.25;1.92;;;;;;;2.66;59.03;102363.34;4979724;28;20538;-76
2023/01/26 07:50:47;;;;;;;8.88;1.23;;;;;;;2.91;57.67;102367.22;4980657;28;20033;-76
2023/01/26 07:53:18;;;;;;;26.25;1.65;;;;;;;2.81;58.16;102370.47;4984091;28;20061;-77
2023/01/26 07:55:44;;;;;;;15.60;1.37;;;;;;;2.72;58.34;102370.31;4984686;28;20448;-77
2023/01/26 07:58:11;;;;;;;17.95;1.70;;;;;;;2.69;58.35;102376.31;4982556;28;20049;-77
2023/01/26 08:00:37;;;;;;;17.40;1.65;;;;;;;2.73;58.38;102377.22;4985182;28;20303;-76
2023/01/26 08:03:02;;;;;;;13.10;2.25;;;;;;;2.88;57.92;102377.47;4983108;28;20073;-76
2023/01/26 08:05:28;;;;;;;18.75;2.85;;;;;;;2.63;58.90;102383.94;4982055;28;20121;-76
2023/01/26 08:07:58;;;;;;;27.30;2.28;;;;;;;2.74;58.51;102385.00;4982788;28;20034;-76
2023/01/26 08:10:24;;;;;;;13.95;2.22;;;;;;;2.95;57.71;102386.19;4980985;28;20045;-76
2023/01/26 08:12:49;;;;;;;13.93;1.70;;;;;;;2.96;57.77;102386.22;4955429;28;20051;-75
2023/01/26 08:15:15;;;;;;;10.95;1.75;;;;;;;2.96;57.64;102375.03;4985211;28;20077;-75
2023/01/26 08:17:40;;;;;;;31.55;3.53;;;;;;;2.87;58.01;102374.88;4983400;28;20674;-78
2023/01/26 08:20:06;;;;;;;20.35;4.63;;;;;;;2.93;57.60;102380.13;4984328;28;20041;-75
2023/01/26 08:22:32;;;;;;;14.68;2.88;;;;;;;2.91;57.33;102377.53;4981733;28;20038;-78
2023/01/26 08:24:57;;;;;;;20.67;2.22;;;;;;;2.85;57.20;102386.91;4985420;28;20033;-78
2023/01/26 08:27:23;;;;;;;26.48;3.25;;;;;;;2.85;57.23;102381.72;4983864;28;20566;-75
2023/01/26 08:29:50;;;;;;;20.27;2.30;;;;;;;2.56;58.26;102374.34;4981245;28;20049;-78
2023/01/26 08:32:15;;;;;;;19.02;2.53;;;;;;;2.76;57.73;102378.16;4983423;28;20038;-75
2023/01/26 08:34:41;;;;;;;17.73;1.98;;;;;;;2.67;58.50;102384.88;4982936;28;20046;-76
2023/01/26 08:37:07;;;;;;;26.65;2.47;;;;;;;2.52;58.98;102382.88;4985197;28;20045;-78
2023/01/26 08:39:32;;;;;;;14.82;2.42;;;;;;;2.60;58.45;102376.16;4965273;28;20101;-75
2023/01/26 08:41:57;;;;;;;23.13;1.95;;;;;;;2.61;58.42;102372.72;4984218;28;20594;-75
2023/01/26 08:44:23;;;;;;;15.52;2.00;;;;;;;2.66;58.43;102381.41;4978379;28;20039;-76
2023/01/26 08:46:48;;;;;;;20.85;2.58;;;;;;;2.55;58.81;102388.09;4981396;28;20062;-76
2023/01/26 08:49:15;;;;;;;18.25;2.25;;;;;;;2.64;58.87;102385.66;4982256;28;20042;-78
2023/01/26 08:51:40;;;;;;;23.75;2.55;;;;;;;2.78;58.16;102383.34;4982777;28;20038;-74
2023/01/26 08:54:09;;;;;;;15.55;2.60;;;;;;;2.80;58.17;102379.06;4982531;28;20130;-76
2023/01/26 08:56:34;;;;;;;23.30;2.38;;;;;;;3.12;59.14;102382.16;4982233;28;20038;-76
2023/01/26 08:59:00;;;;;;;26.83;2.33;;;;;;;4.25;56.34;102381.91;5000856;28;20314;-74
2023/01/26 09:01:25;;;;;;;18.55;1.65;;;;;;;5.03;53.46;102381.78;4999483;28;20037;-74
2023/01/26 09:03:52;;;;;;;27.33;2.53;;;;;;;5.58;52.31;102387.31;4999610;28;20044;-74
2023/01/26 09:06:18;;;;;;;25.52;2.42;;;;;;;5.80;51.28;102382.22;4982530;28;20034;-76
2023/01/26 09:08:44;;;;;;;14.77;1.92;;;;;;;6.14;50.08;102384.94;4980883;28;20543;-74
2023/01/26 09:11:10;;;;;;;17.77;2.33;;;;;;;6.41;50.38;102385.00;4981435;28;20038;-76
2023/01/26 09:13:37;;;;;;;20.98;2.08;;;;;;;6.29;50.07;102379.81;4978635;28;20778;-75
2023/01/26 09:16:05;;;;;;;24.63;3.78;;;;;;;6.05;50.42;102386.63;4984369;28;20030;-77
2023/01/26 09:18:30;;;;;;;27.10;3.63;;;;;;;6.09;50.13;102378.00;4979232;28;20140;-77
2023/01/26 09:21:02;;;;;;;28.60;2.80;;;;;;;5.94;49.70;102377.94;4985615;28;20038;-77
2023/01/26 09:23:27;;;;;;;24.60;2.33;;;;;;;5.97;50.98;102377.97;4983448;28;20064;-75
2023/01/26 09:25:53;;;;;;;12.77;2.33;;;;;;;6.30;49.83;102381.53;4985162;28;20034;-75
2023/01/26 09:28:18;;;;;;;13.18;2.45;;;;;;;6.35;49.82;102379.84;4962414;28;20079;-77
2023/01/26 09:30:44;;;;;;;11.35;2.25;;;;;;;6.41;50.10;102385.00;4981088;28;20157;-76
2023/01/26 09:33:09;;;;;;;9.15;1.08;;;;;;;6.16;50.25;102383.22;4979774;28;20454;-77
2023/01/26 09:35:35;;;;;;;19.02;1.60;;;;;;;6.54;48.68;102385.91;4986087;28;20039;-77
2023/01/26 09:38:00;;;;;;;14.13;2.03;;;;;;;6.48;49.54;102394.56;4981980;28;20039;-77
2023/01/26 09:40:38;;;;;;;20.42;1.70;;;;;;;6.68;49.14;102389.38;4977377;28;20061;-75
2023/01/26 09:43:19;;;;;;;11.82;1.40;;;;;;;7.05;47.85;102388.50;4979154;28;20057;-76
2023/01/26 09:45:59;;;;;;;24.17;2.65;;;;;;;7.03;48.56;102391.09;4980129;28;20040;-75
2023/01/26 09:48:33;;;;;;;14.60;1.70;;;;;;;7.21;47.50;102395.41;4959324;28;20050;-75
2023/01/26 09:51:09;;;;;;;14.73;1.33;;;;;;;6.84;48.59;102392.88;4979660;28;20034;-76
2023/01/26 09:53:53;;;;;;;15.88;2.78;;;;;;;7.22;47.95;102397.16;4977026;28;20087;-75
2023/01/26 09:56:23;;;;;;;13.43;2.17;;;;;;;7.13;47.64;102402.34;4980058;28;20060;-75
2023/01/26 09:58:56;;;;;;;8.80;1.83;;;;;;;6.65;48.68;102398.91;4978788;28;20039;-75
2023/01/26 10:01:51;;;;;;;15.95;1.85;;;;;;;6.68;48.79;102404.97;4980551;28;20783;-78
2023/01/26 10:04:38;;;;;;;16.83;1.83;;;;;;;6.61;49.15;102402.38;4981078;28;20038;-76
2023/01/26 10:07:08;;;;;;;10.57;0.88;;;;;;;6.61;49.27;102412.75;4984212;28;20042;-77
2023/01/26 10:09:51;;;;;;;13.05;1.40;;;;;;;6.75;48.80;102403.22;4979374;28;20039;-75
2023/01/26 10:12:32;;;;;;;15.32;2.15;;;;;;;6.84;48.97;102399.78;4979722;28;20030;-77
2023/01/26 10:15:03;;;;;;;13.00;1.10;;;;;;;6.60;48.63;102400.66;4979709;28;20046;-77
2023/01/26 10:17:43;;;;;;;18.80;2.40;;;;;;;7.00;49.13;102398.03;4977947;28;20034;-77
2023/01/26 10:20:27;;;;;;;11.73;1.35;;;;;;;6.78;48.29;102400.66;4979323;28;20905;-77
2023/01/26 10:23:20;;;;;;;9.48;1.77;;;;;;;6.59;48.69;102404.09;4978864;28;20041;-75
2023/01/26 10:25:46;;;;;;;9.15;0.90;;;;;;;7.23;47.51;102391.09;4982245;28;20109;-76
2023/01/26 10:28:19;;;;;;;11.55;1.58;;;;;;;7.43;47.05;102391.03;4980457;28;20042;-78
2023/01/26 10:30:47;;;;;;;12.20;2.28;;;;;;;7.41;46.53;102397.13;4980062;28;20026;-76
2023/01/26 10:33:25;;;;;;;12.32;1.38;;;;;;;7.64;46.12;102392.72;4981960;28;20451;-76
2023/01/26 10:35:50;;;;;;;10.95;1.55;;;;;;;7.26;46.84;102398.88;4980382;28;20041;-75
2023/01/26 10:38:46;;;;;;;19.13;1.50;;;;;;;6.57;48.67;102395.44;4978694;28;20046;-76
2023/01/26 10:41:15;;;;;;;18.23;2.00;;;;;;;7.36;47.17;102391.06;4953695;28;20268;-77
2023/01/26 10:43:48;;;;;;;19.73;2.80;;;;;;;7.46;46.65;102391.03;4980555;28;20671;-78
2023/01/26 10:46:28;;;;;;;11.80;2.15;;;;;;;7.53;46.91;102381.47;4983837;28;20683;-76
2023/01/26 10:48:56;;;;;;;15.30;2.72;;;;;;;7.62;45.99;102386.66;4977963;28;20049;-77
2023/01/26 10:51:28;;;;;;;14.18;1.42;;;;;;;7.92;45.46;102384.84;4979846;28;20295;-77
2023/01/26 10:54:14;;;;;;;15.85;1.15;;;;;;;7.29;46.32;102391.06;4978579;28;20034;-78
2023/01/26 10:56:55;;;;;;;17.58;1.35;;;;;;;6.89;47.15;102388.53;4968757;28;20181;-78
2023/01/26 10:59:29;;;;;;;9.13;0.60;;;;;;;7.11;46.98;102383.31;4978344;28;20042;-76
2023/01/26 11:02:00;;;;;;;12.57;1.20;;;;;;;7.52;46.26;102377.16;4980997;28;21112;-76
2023/01/26 11:04:27;;;;;;;12.50;1.10;;;;;;;7.16;46.80;102380.72;4979021;28;20117;-76
2023/01/26 11:06:52;;;;;;;8.23;1.85;;;;;;;7.15;47.50;102379.81;4982483;28;20030;-76
2023/01/26 11:09:28;;;;;;;13.30;0.90;;;;;;;7.26;46.47;102383.25;4978368;28;20077;-77
2023/01/26 11:11:55;;;;;;;11.43;1.67;;;;;;;7.23;46.68;102388.47;4979637;28;20039;-76
2023/01/26 11:14:20;;;;;;;15.60;0.98;;;;;;;7.16;47.04;102384.16;4977853;28;20074;-78
2023/01/26 11:16:55;;;;;;;16.85;1.92;;;;;;;6.70;47.54;102384.19;4963718;28;20511;-76
2023/01/26 11:19:27;;;;;;;13.77;1.33;;;;;;;7.04;47.73;102386.75;4961611;28;20050;-76
2023/01/26 11:22:03;;;;;;;14.80;2.30;;;;;;;7.29;46.67;102387.63;4979014;28;20034;-76
2023/01/26 11:24:43;;;;;;;13.75;1.40;;;;;;;7.09;46.58;102383.31;4980409;28;20764;-76
2023/01/26 11:27:38;;;;;;;12.50;1.45;;;;;;;6.52;48.08;102381.59;4982738;28;20113;-76
2023/01/26 11:30:16;;;;;;;11.73;1.35;;;;;;;6.37;49.38;102388.47;4982088;28;20058;-75
2023/01/26 11:32:59;;;;;;;12.57;1.63;;;;;;;7.00;48.39;102379.84;4981946;28;20066;-76
2023/01/26 11:35:40;;;;;;;10.50;1.27;;;;;;;7.23;47.28;102382.41;4985392;28;20104;-78
2023/01/26 11:38:21;;;;;;;10.43;2.50;;;;;;;6.86;47.87;102385.94;4983463;28;20042;-76
2023/01/26 11:41:11;;;;;;;12.30;1.15;;;;;;;6.84;47.56;102379.88;4984676;28;20038;-76
2023/01/26 11:43:55;;;;;;;9.45;0.98;;;;;;;6.64;48.30;102377.25;4981528;28;20045;-77
2023/01/26 11:46:30;;;;;;;10.35;1.27;;;;;;;7.35;46.38;102371.13;4982310;28;20302;-76
2023/01/26 11:49:07;;;;;;;17.70;1.95;;;;;;;7.21;46.61;102371.16;4980751;28;20128;-76
2023/01/26 11:51:55;;;;;;;15.40;0.52;;;;;;;7.37;45.92;102352.03;4980697;28;20122;-76
2023/01/26 11:54:56;;;;;;;14.52;1.00;;;;;;;7.09;47.88;102362.50;4981668;28;20763;-75
2023/01/26 11:57:39;;;;;;;16.75;1.00;;;;;;;7.14;47.66;102357.31;4892160;29;20036;-76
2023/01/26 12:00:22;;;;;;;18.88;0.77;;;;;;;7.04;46.79;102356.47;4935698;28;20058;-75
2023/01/26 12:03:00;;;;;;;10.57;0.80;;;;;;;6.70;48.50;102355.59;4983290;28;20744;-77
2023/01/26 12:05:30;;;;;;;11.40;1.15;;;;;;;7.21;48.15;102347.75;4985027;28;20030;-77
2023/01/26 12:08:04;;;;;;;15.15;1.42;;;;;;;6.95;47.19;102350.38;4986494;28;20041;-76
2023/01/26 12:10:39;;;;;;;9.57;1.10;;;;;;;6.34;48.13;102349.53;4981673;28;20030;-76
2023/01/26 12:13:16;;;;;;;9.50;1.48;;;;;;;5.82;49.48;102357.16;4983967;28;20030;-76
2023/01/26 12:15:50;;;;;;;7.22;1.75;;;;;;;6.75;47.71;102351.25;4984916;28;20026;-76
2023/01/26 12:18:24;;;;;;;4.85;1.05;;;;;;;6.53;47.71;102352.13;4984644;28;20061;-75
2023/01/26 12:20:54;;;;;;;10.10;1.20;;;;;;;6.61;47.01;102345.22;4984345;28;20034;-76
2023/01/26 12:23:24;;;;;;;24.27;2.35;;;;;;;7.03;47.01;102346.06;4982860;28;20126;-75